Hot Springs, Montana
Current Conditions -  °F | °C
As of 10:53 PM on Wednesday 28 Jan 2015 (Local Time) from KMLP Reporting Station
Clear Clear  
Wind Chill: -6°   Ceiling: Unl
Heat Index: -3°   Visibility: 10mi
Dew Point: -4°   Wind: 5mph
Humidity: 89%   Direction: 200°SSW
Pressure: 30.35"   Gusts: NA
Location:  47.61°N, 114.67°W
Report Text: KMLP 290553Z AUTO 20004KT 10SM CLR M03/M04 A3035 RMK AO2 SLP315 T10281044 11011 21033 53005
Loading
Personal Weather Stations






























Interactive Weather Map New forecast layout! Learn more

10-Day Weather Forecast

Advertisements
Track Severe Weather on mobile